sensor_id;sensor_type;location;lat;lon;timestamp;pressure;altitude;pressure_sealevel;temperature;humidity
64211;BME280;50528;48.514;14.394;2022-08-21T00:00:39;93834.08;;;16.11;80.89
64211;BME280;50528;48.514;14.394;2022-08-21T00:01:46;93835.73;;;16.11;81.15
64211;BME280;50528;48.514;14.394;2022-08-21T00:02:53;93829.41;;;16.12;81.03
64211;BME280;50528;48.514;14.394;2022-08-21T00:03:57;93830.94;;;16.11;81.02
64211;BME280;50528;48.514;14.394;2022-08-21T00:05:00;93830.10;;;16.11;81.10
64211;BME280;50528;48.514;14.394;2022-08-21T00:06:04;93828.02;;;16.13;81.11
64211;BME280;50528;48.514;14.394;2022-08-21T00:07:18;93825.59;;;16.18;81.03
64211;BME280;50528;48.514;14.394;2022-08-21T00:08:22;93826.01;;;16.13;81.02
64211;BME280;50528;48.514;14.394;2022-08-21T00:09:25;93819.23;;;16.11;81.13
64211;BME280;50528;48.514;14.394;2022-08-21T00:10:33;93821.25;;;16.09;81.29
64211;BME280;50528;48.514;14.394;2022-08-21T00:11:37;93817.89;;;16.08;81.31
64211;BME280;50528;48.514;14.394;2022-08-21T00:12:42;93816.80;;;16.09;81.35
64211;BME280;50528;48.514;14.394;2022-08-21T00:13:46;93817.60;;;16.09;81.48
64211;BME280;50528;48.514;14.394;2022-08-21T00:14:52;93813.59;;;16.08;81.44
64211;BME280;50528;48.514;14.394;2022-08-21T00:16:00;93816.19;;;16.07;81.53
64211;BME280;50528;48.514;14.394;2022-08-21T00:17:07;93814.36;;;16.09;81.62
64211;BME280;50528;48.514;14.394;2022-08-21T00:18:10;93814.33;;;16.08;81.69
64211;BME280;50528;48.514;14.394;2022-08-21T00:19:13;93812.28;;;16.07;81.89
64211;BME280;50528;48.514;14.394;2022-08-21T00:20:17;93812.59;;;16.07;81.76
64211;BME280;50528;48.514;14.394;2022-08-21T00:21:20;93810.27;;;16.06;82.02
64211;BME280;50528;48.514;14.394;2022-08-21T00:22:25;93809.80;;;16.05;82.21
64211;BME280;50528;48.514;14.394;2022-08-21T00:23:28;93808.84;;;16.05;82.07
64211;BME280;50528;48.514;14.394;2022-08-21T00:24:31;93808.67;;;16.07;82.09
64211;BME280;50528;48.514;14.394;2022-08-21T00:25:35;93808.21;;;16.05;82.09
64211;BME280;50528;48.514;14.394;2022-08-21T00:26:38;93809.70;;;16.03;82.32
64211;BME280;50528;48.514;14.394;2022-08-21T00:27:42;93812.77;;;16.05;82.18
64211;BME280;50528;48.514;14.394;2022-08-21T00:28:45;93811.73;;;16.03;82.23
64211;BME280;50528;48.514;14.394;2022-08-21T00:29:48;93815.12;;;16.04;82.41
64211;BME280;50528;48.514;14.394;2022-08-21T00:30:52;93810.73;;;16.03;82.34
64211;BME280;50528;48.514;14.394;2022-08-21T00:31:55;93809.95;;;16.00;82.38
64211;BME280;50528;48.514;14.394;2022-08-21T00:32:59;93812.34;;;16.01;82.30
64211;BME280;50528;48.514;14.394;2022-08-21T00:34:02;93808.70;;;15.99;82.34
64211;BME280;50528;48.514;14.394;2022-08-21T00:35:09;93807.23;;;15.96;82.40
64211;BME280;50528;48.514;14.394;2022-08-21T00:36:14;93807.73;;;15.98;82.38
64211;BME280;50528;48.514;14.394;2022-08-21T00:37:17;93808.45;;;15.92;82.54
64211;BME280;50528;48.514;14.394;2022-08-21T00:38:20;93803.84;;;15.86;82.58
64211;BME280;50528;48.514;14.394;2022-08-21T00:39:23;93808.34;;;15.85;82.80
64211;BME280;50528;48.514;14.394;2022-08-21T00:40:31;93804.04;;;15.82;82.87
64211;BME280;50528;48.514;14.394;2022-08-21T00:41:35;93804.84;;;15.79;82.94
64211;BME280;50528;48.514;14.394;2022-08-21T00:42:41;93800.02;;;15.76;82.88
64211;BME280;50528;48.514;14.394;2022-08-21T00:43:46;93797.67;;;15.76;83.06
64211;BME280;50528;48.514;14.394;2022-08-21T00:44:50;93796.10;;;15.73;83.06
64211;BME280;50528;48.514;14.394;2022-08-21T00:45:53;93794.77;;;15.71;83.00
64211;BME280;50528;48.514;14.394;2022-08-21T00:46:56;93797.67;;;15.71;82.95
64211;BME280;50528;48.514;14.394;2022-08-21T00:48:00;93792.98;;;15.69;83.07
64211;BME280;50528;48.514;14.394;2022-08-21T00:49:03;93795.24;;;15.69;83.01
64211;BME280;50528;48.514;14.394;2022-08-21T00:50:07;93794.46;;;15.68;83.11
64211;BME280;50528;48.514;14.394;2022-08-21T00:51:24;93798.84;;;15.69;83.22
64211;BME280;50528;48.514;14.394;2022-08-21T00:52:29;93797.23;;;15.66;83.21
64211;BME280;50528;48.514;14.394;2022-08-21T00:53:33;93799.36;;;15.66;83.24
64211;BME280;50528;48.514;14.394;2022-08-21T00:54:38;93802.17;;;15.66;83.33
64211;BME280;50528;48.514;14.394;2022-08-21T00:55:49;93803.57;;;15.64;83.42
64211;BME280;50528;48.514;14.394;2022-08-21T00:56:54;93801.86;;;15.64;83.48
64211;BME280;50528;48.514;14.394;2022-08-21T00:58:03;93804.57;;;15.64;83.51
64211;BME280;50528;48.514;14.394;2022-08-21T00:59:10;93802.45;;;15.64;83.55
64211;BME280;50528;48.514;14.394;2022-08-21T01:00:15;93800.27;;;15.64;83.66
64211;BME280;50528;48.514;14.394;2022-08-21T01:01:21;93803.52;;;15.63;83.62
64211;BME280;50528;48.514;14.394;2022-08-21T01:02:24;93800.97;;;15.63;83.70
64211;BME280;50528;48.514;14.394;2022-08-21T01:03:28;93800.44;;;15.63;83.65
64211;BME280;50528;48.514;14.394;2022-08-21T01:04:31;93798.64;;;15.63;83.69
64211;BME280;50528;48.514;14.394;2022-08-21T01:05:34;93802.92;;;15.63;83.61
64211;BME280;50528;48.514;14.394;2022-08-21T01:06:38;93800.91;;;15.65;83.81
64211;BME280;50528;48.514;14.394;2022-08-21T01:07:44;93800.81;;;15.63;83.82
64211;BME280;50528;48.514;14.394;2022-08-21T01:08:47;93798.80;;;15.64;83.82
64211;BME280;50528;48.514;14.394;2022-08-21T01:09:51;93801.02;;;15.63;83.85
64211;BME280;50528;48.514;14.394;2022-08-21T01:10:54;93801.61;;;15.63;83.73
64211;BME280;50528;48.514;14.394;2022-08-21T01:11:58;93800.28;;;15.63;83.81
64211;BME280;50528;48.514;14.394;2022-08-21T01:13:02;93804.94;;;15.65;83.80
64211;BME280;50528;48.514;14.394;2022-08-21T01:14:06;93798.63;;;15.65;83.88
64211;BME280;50528;48.514;14.394;2022-08-21T01:15:10;93798.63;;;15.65;84.07
64211;BME280;50528;48.514;14.394;2022-08-21T01:16:15;93795.71;;;15.66;84.06
64211;BME280;50528;48.514;14.394;2022-08-21T01:17:20;93794.16;;;15.66;84.28
64211;BME280;50528;48.514;14.394;2022-08-21T01:18:23;93798.34;;;15.67;84.37
64211;BME280;50528;48.514;14.394;2022-08-21T01:19:27;93796.78;;;15.65;84.48
64211;BME280;50528;48.514;14.394;2022-08-21T01:20:30;93793.98;;;15.64;84.42
64211;BME280;50528;48.514;14.394;2022-08-21T01:21:34;93796.20;;;15.63;84.39
64211;BME280;50528;48.514;14.394;2022-08-21T01:22:38;93794.83;;;15.63;84.36
64211;BME280;50528;48.514;14.394;2022-08-21T01:23:42;93793.34;;;15.63;84.34
64211;BME280;50528;48.514;14.394;2022-08-21T01:24:46;93793.60;;;15.64;84.33
64211;BME280;50528;48.514;14.394;2022-08-21T01:25:49;93798.04;;;15.66;84.21
64211;BME280;50528;48.514;14.394;2022-08-21T01:26:53;93793.14;;;15.67;84.26
64211;BME280;50528;48.514;14.394;2022-08-21T01:27:57;93789.38;;;15.69;84.33
64211;BME280;50528;48.514;14.394;2022-08-21T01:30:25;93790.95;;;15.70;84.37
64211;BME280;50528;48.514;14.394;2022-08-21T01:31:30;93787.61;;;15.70;84.37
64211;BME280;50528;48.514;14.394;2022-08-21T01:32:34;93785.52;;;15.68;84.32
64211;BME280;50528;48.514;14.394;2022-08-21T01:33:38;93785.65;;;15.71;84.69
64211;BME280;50528;48.514;14.394;2022-08-21T01:34:42;93782.31;;;15.71;84.84
64211;BME280;50528;48.514;14.394;2022-08-21T01:35:45;93785.38;;;15.70;84.95
64211;BME280;50528;48.514;14.394;2022-08-21T01:36:48;93784.65;;;15.68;84.92
64211;BME280;50528;48.514;14.394;2022-08-21T01:37:52;93786.48;;;15.67;85.05
64211;BME280;50528;48.514;14.394;2022-08-21T01:38:55;93785.02;;;15.68;85.10
64211;BME280;50528;48.514;14.394;2022-08-21T01:39:58;93783.73;;;15.69;85.21
64211;BME280;50528;48.514;14.394;2022-08-21T01:41:02;93784.75;;;15.69;85.45
64211;BME280;50528;48.514;14.394;2022-08-21T01:42:05;93783.69;;;15.71;85.44
64211;BME280;50528;48.514;14.394;2022-08-21T01:43:09;93784.45;;;15.67;85.46
64211;BME280;50528;48.514;14.394;2022-08-21T01:44:12;93786.48;;;15.66;85.48
64211;BME280;50528;48.514;14.394;2022-08-21T01:45:16;93787.45;;;15.66;85.51
64211;BME280;50528;48.514;14.394;2022-08-21T01:46:19;93783.46;;;15.66;85.63
64211;BME280;50528;48.514;14.394;2022-08-21T01:47:22;93783.58;;;15.66;85.68
64211;BME280;50528;48.514;14.394;2022-08-21T01:48:26;93787.76;;;15.66;85.86
64211;BME280;50528;48.514;14.394;2022-08-21T01:49:29;93787.66;;;15.66;85.77
64211;BME280;50528;48.514;14.394;2022-08-21T01:50:33;93786.73;;;15.68;85.88
64211;BME280;50528;48.514;14.394;2022-08-21T01:51:36;93785.80;;;15.66;85.64
64211;BME280;50528;48.514;14.394;2022-08-21T01:52:39;93784.16;;;15.65;85.73
64211;BME280;50528;48.514;14.394;2022-08-21T01:53:42;93787.77;;;15.65;85.83
64211;BME280;50528;48.514;14.394;2022-08-21T01:54:45;93783.15;;;15.66;85.93
64211;BME280;50528;48.514;14.394;2022-08-21T01:55:56;93785.04;;;15.67;85.55
64211;BME280;50528;48.514;14.394;2022-08-21T01:57:00;93786.83;;;15.68;85.60
64211;BME280;50528;48.514;14.394;2022-08-21T01:58:06;93783.69;;;15.70;85.57
64211;BME280;50528;48.514;14.394;2022-08-21T01:59:09;93783.42;;;15.71;85.59
64211;BME280;50528;48.514;14.394;2022-08-21T02:00:13;93788.50;;;15.72;85.54
64211;BME280;50528;48.514;14.394;2022-08-21T02:01:21;93787.55;;;15.72;85.47
64211;BME280;50528;48.514;14.394;2022-08-21T02:02:24;93784.88;;;15.73;85.69
64211;BME280;50528;48.514;14.394;2022-08-21T02:03:28;93789.80;;;15.73;85.63
64211;BME280;50528;48.514;14.394;2022-08-21T02:04:37;93788.59;;;15.73;85.82
64211;BME280;50528;48.514;14.394;2022-08-21T02:05:46;93787.96;;;15.72;85.81
64211;BME280;50528;48.514;14.394;2022-08-21T02:06:49;93786.99;;;15.73;85.66
64211;BME280;50528;48.514;14.394;2022-08-21T02:07:53;93788.89;;;15.74;85.61
64211;BME280;50528;48.514;14.394;2022-08-21T02:08:57;93788.73;;;15.75;85.67
64211;BME280;50528;48.514;14.394;2022-08-21T02:10:00;93784.54;;;15.76;85.78
64211;BME280;50528;48.514;14.394;2022-08-21T02:11:03;93779.02;;;15.77;85.38
64211;BME280;50528;48.514;14.394;2022-08-21T02:12:06;93777.53;;;15.76;85.35
64211;BME280;50528;48.514;14.394;2022-08-21T02:13:10;93783.48;;;15.76;85.41
64211;BME280;50528;48.514;14.394;2022-08-21T02:14:15;93782.52;;;15.75;85.55
64211;BME280;50528;48.514;14.394;2022-08-21T02:15:34;93780.19;;;15.76;85.27
64211;BME280;50528;48.514;14.394;2022-08-21T02:16:38;93776.95;;;15.78;85.30
64211;BME280;50528;48.514;14.394;2022-08-21T02:17:42;93771.41;;;15.79;85.30
64211;BME280;50528;48.514;14.394;2022-08-21T02:18:46;93779.87;;;15.77;85.34
64211;BME280;50528;48.514;14.394;2022-08-21T02:19:49;93779.88;;;15.76;85.25
64211;BME280;50528;48.514;14.394;2022-08-21T02:20:52;93779.02;;;15.75;85.40
64211;BME280;50528;48.514;14.394;2022-08-21T02:21:58;93780.30;;;15.76;85.55
64211;BME280;50528;48.514;14.394;2022-08-21T02:23:01;93781.19;;;15.78;85.52
64211;BME280;50528;48.514;14.394;2022-08-21T02:24:05;93775.38;;;15.79;85.48
64211;BME280;50528;48.514;14.394;2022-08-21T02:25:09;93777.00;;;15.82;85.44
64211;BME280;50528;48.514;14.394;2022-08-21T02:26:12;93768.14;;;15.83;85.21
64211;BME280;50528;48.514;14.394;2022-08-21T02:27:15;93764.78;;;15.84;85.22
64211;BME280;50528;48.514;14.394;2022-08-21T02:28:22;93768.48;;;15.86;85.16
64211;BME280;50528;48.514;14.394;2022-08-21T02:29:26;93768.36;;;15.86;84.98
64211;BME280;50528;48.514;14.394;2022-08-21T02:30:31;93764.00;;;15.84;85.14
64211;BME280;50528;48.514;14.394;2022-08-21T02:31:34;93768.67;;;15.84;85.03
64211;BME280;50528;48.514;14.394;2022-08-21T02:32:38;93765.11;;;15.84;85.11
64211;BME280;50528;48.514;14.394;2022-08-21T02:33:41;93764.14;;;15.85;85.12
64211;BME280;50528;48.514;14.394;2022-08-21T02:34:44;93760.73;;;15.87;85.01
64211;BME280;50528;48.514;14.394;2022-08-21T02:35:47;93763.80;;;15.87;84.97
64211;BME280;50528;48.514;14.394;2022-08-21T02:36:51;93760.73;;;15.87;85.01
64211;BME280;50528;48.514;14.394;2022-08-21T02:38:07;93762.64;;;15.91;84.81
64211;BME280;50528;48.514;14.394;2022-08-21T02:39:14;93759.50;;;15.92;84.75
64211;BME280;50528;48.514;14.394;2022-08-21T02:40:30;93758.17;;;15.93;84.90
64211;BME280;50528;48.514;14.394;2022-08-21T02:41:37;93756.52;;;15.94;84.71
64211;BME280;50528;48.514;14.394;2022-08-21T02:42:40;93758.55;;;15.95;84.63
64211;BME280;50528;48.514;14.394;2022-08-21T02:43:43;93756.77;;;15.96;84.50
64211;BME280;50528;48.514;14.394;2022-08-21T02:44:47;93756.28;;;15.97;84.60
64211;BME280;50528;48.514;14.394;2022-08-21T02:45:51;93757.97;;;15.97;84.52
64211;BME280;50528;48.514;14.394;2022-08-21T02:46:55;93755.27;;;15.96;84.33
64211;BME280;50528;48.514;14.394;2022-08-21T02:48:01;93754.09;;;15.98;84.51
64211;BME280;50528;48.514;14.394;2022-08-21T02:49:05;93758.59;;;16.00;84.42
64211;BME280;50528;48.514;14.394;2022-08-21T02:50:08;93755.89;;;15.99;84.47
64211;BME280;50528;48.514;14.394;2022-08-21T02:51:13;93757.30;;;16.01;84.20
64211;BME280;50528;48.514;14.394;2022-08-21T02:52:16;93757.36;;;16.02;84.40
64211;BME280;50528;48.514;14.394;2022-08-21T02:53:19;93754.44;;;16.01;84.28
64211;BME280;50528;48.514;14.394;2022-08-21T02:54:22;93758.02;;;16.03;84.30
64211;BME280;50528;48.514;14.394;2022-08-21T02:55:28;93752.34;;;16.02;84.32
64211;BME280;50528;48.514;14.394;2022-08-21T02:56:31;93756.62;;;16.05;84.24
64211;BME280;50528;48.514;14.394;2022-08-21T02:57:34;93753.27;;;16.06;84.39
64211;BME280;50528;48.514;14.394;2022-08-21T02:58:42;93755.34;;;16.06;84.16
64211;BME280;50528;48.514;14.394;2022-08-21T02:59:46;93751.94;;;16.07;84.17
64211;BME280;50528;48.514;14.394;2022-08-21T03:00:51;93752.05;;;16.07;84.18
64211;BME280;50528;48.514;14.394;2022-08-21T03:01:55;93750.27;;;16.07;84.11
64211;BME280;50528;48.514;14.394;2022-08-21T03:02:59;93752.39;;;16.08;84.06
64211;BME280;50528;48.514;14.394;2022-08-21T03:04:03;93741.88;;;16.00;83.82
64211;BME280;50528;48.514;14.394;2022-08-21T03:05:07;93754.81;;;16.08;84.00
64211;BME280;50528;48.514;14.394;2022-08-21T03:06:14;93756.57;;;16.09;83.91
64211;BME280;50528;48.514;14.394;2022-08-21T03:07:17;93756.63;;;16.08;83.90
64211;BME280;50528;48.514;14.394;2022-08-21T03:08:23;93759.88;;;16.08;83.83
64211;BME280;50528;48.514;14.394;2022-08-21T03:09:29;93761.80;;;16.07;83.88
64211;BME280;50528;48.514;14.394;2022-08-21T03:10:32;93759.39;;;16.04;83.91
64211;BME280;50528;48.514;14.394;2022-08-21T03:11:36;93763.50;;;16.07;83.99
64211;BME280;50528;48.514;14.394;2022-08-21T03:12:39;93767.91;;;16.06;83.99
64211;BME280;50528;48.514;14.394;2022-08-21T03:13:42;93766.36;;;16.07;84.10
64211;BME280;50528;48.514;14.394;2022-08-21T03:14:49;93768.70;;;16.06;84.08
64211;BME280;50528;48.514;14.394;2022-08-21T03:15:52;93767.05;;;16.06;84.21
64211;BME280;50528;48.514;14.394;2022-08-21T03:16:56;93772.25;;;16.07;84.28
64211;BME280;50528;48.514;14.394;2022-08-21T03:18:01;93769.08;;;16.06;84.25
64211;BME280;50528;48.514;14.394;2022-08-21T03:19:06;93769.95;;;16.08;84.14
64211;BME280;50528;48.514;14.394;2022-08-21T03:20:09;93767.39;;;16.08;84.02
64211;BME280;50528;48.514;14.394;2022-08-21T03:21:12;93769.83;;;16.09;84.15
64211;BME280;50528;48.514;14.394;2022-08-21T03:22:15;93767.96;;;16.09;84.26
64211;BME280;50528;48.514;14.394;2022-08-21T03:23:20;93771.61;;;16.10;84.03
64211;BME280;50528;48.514;14.394;2022-08-21T03:24:23;93774.48;;;16.11;83.90
64211;BME280;50528;48.514;14.394;2022-08-21T03:25:28;93772.88;;;16.11;83.88
64211;BME280;50528;48.514;14.394;2022-08-21T03:26:42;93776.00;;;16.11;83.99
64211;BME280;50528;48.514;14.394;2022-08-21T03:27:46;93772.23;;;16.12;84.00
64211;BME280;50528;48.514;14.394;2022-08-21T03:28:54;93773.30;;;16.13;84.10
64211;BME280;50528;48.514;14.394;2022-08-21T03:29:59;93772.00;;;16.14;83.99
64211;BME280;50528;48.514;14.394;2022-08-21T03:31:03;93771.77;;;16.15;83.93
64211;BME280;50528;48.514;14.394;2022-08-21T03:32:08;93768.58;;;16.16;83.76
64211;BME280;50528;48.514;14.394;2022-08-21T03:33:12;93768.73;;;16.13;83.84
64211;BME280;50528;48.514;14.394;2022-08-21T03:34:16;93767.70;;;16.10;83.95
64211;BME280;50528;48.514;14.394;2022-08-21T03:35:20;93769.61;;;16.09;84.05
64211;BME280;50528;48.514;14.394;2022-08-21T03:36:23;93767.83;;;16.08;84.01
64211;BME280;50528;48.514;14.394;2022-08-21T03:37:26;93767.39;;;16.08;84.01
64211;BME280;50528;48.514;14.394;2022-08-21T03:38:30;93760.00;;;16.09;84.19
64211;BME280;50528;48.514;14.394;2022-08-21T03:39:34;93761.27;;;16.10;84.11
64211;BME280;50528;48.514;14.394;2022-08-21T03:40:38;93763.61;;;16.11;84.13
64211;BME280;50528;48.514;14.394;2022-08-21T03:41:41;93762.34;;;16.11;83.99
64211;BME280;50528;48.514;14.394;2022-08-21T03:42:44;93763.23;;;16.12;83.87
64211;BME280;50528;48.514;14.394;2022-08-21T03:43:49;93761.21;;;16.12;83.97
64211;BME280;50528;48.514;14.394;2022-08-21T03:44:52;93761.05;;;16.12;83.89
64211;BME280;50528;48.514;14.394;2022-08-21T03:45:55;93760.46;;;16.13;83.98
64211;BME280;50528;48.514;14.394;2022-08-21T03:46:58;93759.09;;;16.13;84.01
64211;BME280;50528;48.514;14.394;2022-08-21T03:48:04;93757.31;;;16.14;84.06
64211;BME280;50528;48.514;14.394;2022-08-21T03:49:09;93761.00;;;16.15;84.03
64211;BME280;50528;48.514;14.394;2022-08-21T03:50:15;93763.33;;;16.16;83.96
64211;BME280;50528;48.514;14.394;2022-08-21T03:51:21;93763.85;;;16.17;84.00
64211;BME280;50528;48.514;14.394;2022-08-21T03:52:25;93763.59;;;16.17;83.89
64211;BME280;50528;48.514;14.394;2022-08-21T03:53:28;93761.73;;;16.18;83.93
64211;BME280;50528;48.514;14.394;2022-08-21T03:54:34;93765.70;;;16.18;83.90
64211;BME280;50528;48.514;14.394;2022-08-21T03:55:37;93763.73;;;16.18;83.76
64211;BME280;50528;48.514;14.394;2022-08-21T03:56:42;93766.44;;;16.19;83.82
64211;BME280;50528;48.514;14.394;2022-08-21T03:57:45;93766.86;;;16.19;83.75
64211;BME280;50528;48.514;14.394;2022-08-21T03:58:48;93756.66;;;16.11;83.73
64211;BME280;50528;48.514;14.394;2022-08-21T03:59:51;93767.73;;;16.17;83.81
64211;BME280;50528;48.514;14.394;2022-08-21T04:00:56;93769.95;;;16.16;83.67
64211;BME280;50528;48.514;14.394;2022-08-21T04:02:02;93769.65;;;16.15;83.76
64211;BME280;50528;48.514;14.394;2022-08-21T04:03:06;93770.60;;;16.15;83.83
64211;BME280;50528;48.514;14.394;2022-08-21T04:04:09;93771.35;;;16.15;83.81
64211;BME280;50528;48.514;14.394;2022-08-21T04:05:15;93768.60;;;16.14;83.94
64211;BME280;50528;48.514;14.394;2022-08-21T04:06:29;93767.66;;;16.14;83.98
64211;BME280;50528;48.514;14.394;2022-08-21T04:07:39;93768.17;;;16.15;84.15
64211;BME280;50528;48.514;14.394;2022-08-21T04:08:42;93770.75;;;16.16;83.94
64211;BME280;50528;48.514;14.394;2022-08-21T04:09:45;93770.65;;;16.16;83.88
64211;BME280;50528;48.514;14.394;2022-08-21T04:10:49;93773.23;;;16.17;84.06
64211;BME280;50528;48.514;14.394;2022-08-21T04:11:53;93770.02;;;16.15;83.97
64211;BME280;50528;48.514;14.394;2022-08-21T04:12:56;93772.81;;;16.18;84.00
64211;BME280;50528;48.514;14.394;2022-08-21T04:13:59;93772.17;;;16.19;84.01
64211;BME280;50528;48.514;14.394;2022-08-21T04:15:03;93771.94;;;16.20;83.90
64211;BME280;50528;48.514;14.394;2022-08-21T04:16:07;93769.50;;;16.20;83.84
64211;BME280;50528;48.514;14.394;2022-08-21T04:17:10;93769.64;;;16.20;83.70
64211;BME280;50528;48.514;14.394;2022-08-21T04:18:13;93770.59;;;16.21;83.71
64211;BME280;50528;48.514;14.394;2022-08-21T04:19:19;93771.23;;;16.20;83.64
64211;BME280;50528;48.514;14.394;2022-08-21T04:20:26;93769.84;;;16.18;83.62
64211;BME280;50528;48.514;14.394;2022-08-21T04:21:29;93772.55;;;16.18;83.72
64211;BME280;50528;48.514;14.394;2022-08-21T04:22:39;93772.02;;;16.17;83.73
64211;BME280;50528;48.514;14.394;2022-08-21T04:23:42;93772.88;;;16.17;83.64
64211;BME280;50528;48.514;14.394;2022-08-21T04:24:47;93774.04;;;16.16;83.83
64211;BME280;50528;48.514;14.394;2022-08-21T04:25:51;93778.77;;;16.15;83.85
64211;BME280;50528;48.514;14.394;2022-08-21T04:26:55;93772.36;;;16.10;83.92
64211;BME280;50528;48.514;14.394;2022-08-21T04:27:58;93777.92;;;16.11;83.94
64211;BME280;50528;48.514;14.394;2022-08-21T04:29:02;93777.98;;;16.09;84.09
64211;BME280;50528;48.514;14.394;2022-08-21T04:30:05;93781.19;;;16.08;84.10
64211;BME280;50528;48.514;14.394;2022-08-21T04:31:08;93778.08;;;16.06;84.15
64211;BME280;50528;48.514;14.394;2022-08-21T04:32:11;93780.16;;;16.04;84.22
64211;BME280;50528;48.514;14.394;2022-08-21T04:33:14;93781.75;;;16.05;84.10
64211;BME280;50528;48.514;14.394;2022-08-21T04:34:18;93779.41;;;16.06;84.06
64211;BME280;50528;48.514;14.394;2022-08-21T04:35:21;93780.90;;;16.05;84.18
64211;BME280;50528;48.514;14.394;2022-08-21T04:36:25;93781.21;;;16.05;84.11
64211;BME280;50528;48.514;14.394;2022-08-21T04:37:29;93781.48;;;16.06;84.21
64211;BME280;50528;48.514;14.394;2022-08-21T04:38:33;93783.45;;;16.05;84.25
64211;BME280;50528;48.514;14.394;2022-08-21T04:39:40;93787.58;;;16.05;84.27
64211;BME280;50528;48.514;14.394;2022-08-21T04:40:42;93787.58;;;16.05;84.30
64211;BME280;50528;48.514;14.394;2022-08-21T04:41:46;93787.90;;;16.05;84.38
64211;BME280;50528;48.514;14.394;2022-08-21T04:42:50;93791.64;;;16.03;84.46
64211;BME280;50528;48.514;14.394;2022-08-21T04:43:54;93790.97;;;16.01;84.49
64211;BME280;50528;48.514;14.394;2022-08-21T04:44:57;93789.65;;;16.01;84.53
64211;BME280;50528;48.514;14.394;2022-08-21T04:46:01;93793.30;;;16.01;84.68
64211;BME280;50528;48.514;14.394;2022-08-21T04:47:04;93789.34;;;16.00;84.87
64211;BME280;50528;48.514;14.394;2022-08-21T04:48:11;93792.52;;;16.00;84.87
64211;BME280;50528;48.514;14.394;2022-08-21T04:49:15;93792.52;;;15.98;84.84
64211;BME280;50528;48.514;14.394;2022-08-21T04:50:19;93794.16;;;15.99;84.82
64211;BME280;50528;48.514;14.394;2022-08-21T04:51:24;93794.10;;;16.01;84.75
64211;BME280;50528;48.514;14.394;2022-08-21T04:52:31;93793.92;;;16.02;84.73
64211;BME280;50528;48.514;14.394;2022-08-21T04:54:44;93795.65;;;16.04;84.92
64211;BME280;50528;48.514;14.394;2022-08-21T04:55:48;93799.65;;;16.02;84.95
64211;BME280;50528;48.514;14.394;2022-08-21T04:56:56;93795.31;;;16.02;84.95
64211;BME280;50528;48.514;14.394;2022-08-21T04:58:02;93796.97;;;16.02;84.97
64211;BME280;50528;48.514;14.394;2022-08-21T04:59:06;93796.91;;;16.01;84.87
64211;BME280;50528;48.514;14.394;2022-08-21T05:00:13;93799.27;;;16.02;84.75
64211;BME280;50528;48.514;14.394;2022-08-21T05:01:20;93799.55;;;16.02;84.89
64211;BME280;50528;48.514;14.394;2022-08-21T05:02:27;93801.46;;;16.02;84.96
64211;BME280;50528;48.514;14.394;2022-08-21T05:03:37;93803.02;;;16.03;84.93
64211;BME280;50528;48.514;14.394;2022-08-21T05:04:43;93803.86;;;16.05;84.98
64211;BME280;50528;48.514;14.394;2022-08-21T05:05:48;93803.95;;;16.07;84.63
64211;BME280;50528;48.514;14.394;2022-08-21T05:06:53;93803.20;;;16.08;84.65
64211;BME280;50528;48.514;14.394;2022-08-21T05:07:59;93806.40;;;16.10;84.62
64211;BME280;50528;48.514;14.394;2022-08-21T05:09:04;93803.27;;;16.11;84.73
64211;BME280;50528;48.514;14.394;2022-08-21T05:10:09;93803.84;;;16.13;84.53
64211;BME280;50528;48.514;14.394;2022-08-21T05:11:15;93808.34;;;16.14;84.49
64211;BME280;50528;48.514;14.394;2022-08-21T05:12:18;93807.83;;;16.15;84.55
64211;BME280;50528;48.514;14.394;2022-08-21T05:13:21;93807.65;;;16.17;84.64
64211;BME280;50528;48.514;14.394;2022-08-21T05:14:24;93809.52;;;16.17;84.71
64211;BME280;50528;48.514;14.394;2022-08-21T05:15:32;93809.33;;;16.20;84.96
64211;BME280;50528;48.514;14.394;2022-08-21T05:16:35;93808.73;;;16.15;84.97
64211;BME280;50528;48.514;14.394;2022-08-21T05:17:40;93811.77;;;16.14;84.94
64211;BME280;50528;48.514;14.394;2022-08-21T05:19:02;93812.25;;;16.14;84.93
64211;BME280;50528;48.514;14.394;2022-08-21T05:20:06;93813.61;;;16.15;84.90
64211;BME280;50528;48.514;14.394;2022-08-21T05:21:09;93812.91;;;16.16;85.03
64211;BME280;50528;48.514;14.394;2022-08-21T05:22:18;93816.52;;;16.18;85.05
64211;BME280;50528;48.514;14.394;2022-08-21T05:23:21;93818.17;;;16.20;84.93
64211;BME280;50528;48.514;14.394;2022-08-21T05:24:24;93814.46;;;16.19;85.05
64211;BME280;50528;48.514;14.394;2022-08-21T05:25:29;93817.02;;;16.24;84.97
64211;BME280;50528;48.514;14.394;2022-08-21T05:26:33;93820.67;;;16.25;84.88
64211;BME280;50528;48.514;14.394;2022-08-21T05:27:48;93815.08;;;16.27;84.95
64211;BME280;50528;48.514;14.394;2022-08-21T05:28:53;93816.30;;;16.28;84.77
64211;BME280;50528;48.514;14.394;2022-08-21T05:29:58;93816.17;;;16.30;84.75
64211;BME280;50528;48.514;14.394;2022-08-21T05:31:01;93815.03;;;16.32;84.75
64211;BME280;50528;48.514;14.394;2022-08-21T05:32:11;93817.23;;;16.33;84.79
64211;BME280;50528;48.514;14.394;2022-08-21T05:33:14;93818.62;;;16.33;84.62
64211;BME280;50528;48.514;14.394;2022-08-21T05:34:18;93815.07;;;16.33;84.69
64211;BME280;50528;48.514;14.394;2022-08-21T05:35:22;93817.75;;;16.36;84.90
64211;BME280;50528;48.514;14.394;2022-08-21T05:36:25;93818.39;;;16.38;84.75
64211;BME280;50528;48.514;14.394;2022-08-21T05:37:28;93820.98;;;16.38;84.73
64211;BME280;50528;48.514;14.394;2022-08-21T05:38:31;93819.56;;;16.38;84.79
64211;BME280;50528;48.514;14.394;2022-08-21T05:39:34;93821.46;;;16.39;84.80
64211;BME280;50528;48.514;14.394;2022-08-21T05:40:57;93825.71;;;16.39;84.85